Time;durP1;ratioP1;P1;durP2;ratioP2;P2;SDS_P1;SDS_P2;PMS_P1;PMS_P2;Temp;Humidity;BMP_temperature;BMP_pressure;BME280_temperature;BME280_humidity;BME280_pressure;Samples;Min_cycle;Max_cycle;Signal;HPM_P1;HPM_P2
2024/02/15 00:01:30;;;;;;;;;;;4.80;84.40;;;;;;5013172;28;92210;-64
2024/02/15 00:03:57;;;;;;;;;;;4.80;84.40;;;;;;5012328;28;92816;-64
2024/02/15 00:06:23;;;;;;;;;;;4.70;84.40;;;;;;5014916;28;92446;-64
2024/02/15 00:08:49;;;;;;;;;;;4.80;84.40;;;;;;5013238;28;92016;-65
2024/02/15 00:11:15;;;;;;;;;;;4.70;84.20;;;;;;5014284;28;92464;-64
2024/02/15 00:13:40;;;;;;;;;;;4.80;84.30;;;;;;5016127;28;92147;-64
2024/02/15 00:16:06;;;;;;;;;;;4.80;84.20;;;;;;5013760;28;91910;-64
2024/02/15 00:18:32;;;;;;;;;;;4.80;84.30;;;;;;5011939;28;92439;-64
2024/02/15 00:20:59;;;;;;;;;;;4.80;84.30;;;;;;5014242;28;91259;-64
2024/02/15 00:23:25;;;;;;;;;;;4.70;84.30;;;;;;5011750;28;92029;-64
2024/02/15 00:25:51;;;;;;;;;;;4.80;84.40;;;;;;5014345;28;92618;-64
2024/02/15 00:28:17;;;;;;;;;;;4.70;84.30;;;;;;5019871;28;93119;-64
2024/02/15 00:30:42;;;;;;;;;;;4.70;85.00;;;;;;5012937;28;92420;-64
2024/02/15 00:33:08;;;;;;;;;;;4.70;84.50;;;;;;5015691;28;92067;-64
2024/02/15 00:35:33;;;;;;;;;;;4.70;84.40;;;;;;5014057;28;91933;-64
2024/02/15 00:37:59;;;;;;;;;;;4.70;84.40;;;;;;5013770;28;92591;-64
2024/02/15 00:40:25;;;;;;;;;;;4.70;84.30;;;;;;5013034;28;92127;-65
2024/02/15 00:42:50;;;;;;;;;;;4.70;84.30;;;;;;5013591;28;91889;-64
2024/02/15 00:45:16;;;;;;;;;;;4.70;84.20;;;;;;5015869;28;91867;-64
2024/02/15 00:47:41;;;;;;;;;;;4.70;84.20;;;;;;5014525;28;92129;-64
2024/02/15 00:50:10;;;;;;;;;;;4.60;84.30;;;;;;5012497;28;92157;-64
2024/02/15 00:52:36;;;;;;;;;;;4.70;84.30;;;;;;5011280;28;93074;-65
2024/02/15 00:55:01;;;;;;;;;;;4.70;84.90;;;;;;5012877;28;92660;-64
2024/02/15 00:57:27;;;;;;;;;;;4.60;84.40;;;;;;5012412;28;92420;-64
2024/02/15 00:59:52;;;;;;;;;;;4.70;84.50;;;;;;5012955;28;92095;-64
2024/02/15 01:02:18;;;;;;;;;;;4.70;85.00;;;;;;5014414;28;91918;-65
2024/02/15 01:04:46;;;;;;;;;;;4.70;84.30;;;;;;5011744;28;92552;-64
2024/02/15 01:07:11;;;;;;;;;;;4.70;84.40;;;;;;5009971;28;92042;-64
2024/02/15 01:09:37;;;;;;;;;;;4.60;84.30;;;;;;5015419;28;91640;-64
2024/02/15 01:12:05;;;;;;;;;;;4.70;84.40;;;;;;5017145;28;91974;-64
2024/02/15 01:14:31;;;;;;;;;;;4.60;84.40;;;;;;5014794;28;92030;-64
2024/02/15 01:16:57;;;;;;;;;;;4.60;84.40;;;;;;5013094;28;93457;-64
2024/02/15 01:19:23;;;;;;;;;;;4.60;84.50;;;;;;5010215;28;91940;-64
2024/02/15 01:21:48;;;;;;;;;;;4.60;84.40;;;;;;5014773;28;91889;-64
2024/02/15 01:24:14;;;;;;;;;;;4.60;84.30;;;;;;5009743;28;92509;-64
2024/02/15 01:26:40;;;;;;;;;;;4.70;84.20;;;;;;5014695;28;92074;-65
2024/02/15 01:29:05;;;;;;;;;;;4.70;84.00;;;;;;5016783;28;92012;-65
2024/02/15 01:31:31;;;;;;;;;;;4.60;83.80;;;;;;5013875;28;92519;-64
2024/02/15 01:33:57;;;;;;;;;;;4.60;83.90;;;;;;5016100;28;91323;-64
2024/02/15 01:36:22;;;;;;;;;;;4.60;83.90;;;;;;5011947;28;92537;-64
2024/02/15 01:38:48;;;;;;;;;;;4.60;84.00;;;;;;5014556;28;92001;-64
2024/02/15 01:41:14;;;;;;;;;;;4.60;83.90;;;;;;5006348;28;93022;-65
2024/02/15 01:43:43;;;;;;;;;;;4.70;83.90;;;;;;5008083;28;92478;-64
2024/02/15 01:46:09;;;;;;;;;;;4.60;83.80;;;;;;5012667;28;92070;-64
2024/02/15 01:48:36;;;;;;;;;;;4.60;83.80;;;;;;5014846;28;92036;-64
2024/02/15 01:51:01;;;;;;;;;;;4.60;83.80;;;;;;5012807;28;92453;-64
2024/02/15 01:53:28;;;;;;;;;;;4.50;83.80;;;;;;5012413;28;92165;-64
2024/02/15 01:55:57;;;;;;;;;;;4.60;84.00;;;;;;5010670;28;92010;-64
2024/02/15 01:58:23;;;;;;;;;;;4.60;83.90;;;;;;5013196;28;91319;-64
2024/02/15 02:00:49;;;;;;;;;;;4.50;83.90;;;;;;5009579;28;91970;-64
2024/02/15 02:03:15;;;;;;;;;;;4.50;83.90;;;;;;5014831;28;92418;-64
2024/02/15 02:05:42;;;;;;;;;;;4.50;83.90;;;;;;5012030;28;93164;-64
2024/02/15 02:08:09;;;;;;;;;;;4.50;84.00;;;;;;5015057;28;92813;-64
2024/02/15 02:10:36;;;;;;;;;;;4.50;83.90;;;;;;5015111;28;92431;-64
2024/02/15 02:13:02;;;;;;;;;;;4.50;84.00;;;;;;5011748;28;92017;-64
2024/02/15 02:15:31;;;;;;;;;;;4.50;84.00;;;;;;5014556;28;92124;-64
2024/02/15 02:17:58;;;;;;;;;;;4.50;84.00;;;;;;5009040;28;92053;-64
2024/02/15 02:20:25;;;;;;;;;;;4.50;83.90;;;;;;5013031;28;92007;-64
2024/02/15 02:22:55;;;;;;;;;;;4.50;83.90;;;;;;5012256;28;91768;-64
2024/02/15 02:25:20;;;;;;;;;;;4.50;84.00;;;;;;5010090;28;91977;-64
2024/02/15 02:27:47;;;;;;;;;;;4.50;84.00;;;;;;5011083;28;91892;-64
2024/02/15 02:30:21;;;;;;;;;;;4.50;83.90;;;;;;5010513;28;93583;-64
2024/02/15 02:32:47;;;;;;;;;;;4.50;84.00;;;;;;5012495;28;91923;-64
2024/02/15 02:35:12;;;;;;;;;;;4.50;83.90;;;;;;5010157;28;91948;-64
2024/02/15 02:37:39;;;;;;;;;;;4.50;83.80;;;;;;5011521;28;91990;-64
2024/02/15 02:40:08;;;;;;;;;;;4.50;83.90;;;;;;5014053;28;92011;-64
2024/02/15 02:42:46;;;;;;;;;;;4.50;83.90;;;;;;5010298;28;92577;-64
2024/02/15 02:45:11;;;;;;;;;;;4.40;83.90;;;;;;5011563;28;92135;-64
2024/02/15 02:47:37;;;;;;;;;;;4.50;84.00;;;;;;5012676;28;91197;-64
2024/02/15 02:50:03;;;;;;;;;;;4.40;83.70;;;;;;5014081;28;92484;-64
2024/02/15 02:52:28;;;;;;;;;;;4.50;83.70;;;;;;5011618;28;92084;-64
2024/02/15 02:54:54;;;;;;;;;;;4.50;83.80;;;;;;5013675;28;92940;-64
2024/02/15 02:57:19;;;;;;;;;;;4.40;83.80;;;;;;5011184;28;92759;-64
2024/02/15 02:59:45;;;;;;;;;;;4.40;83.70;;;;;;5017728;28;92111;-64
2024/02/15 03:02:10;;;;;;;;;;;4.40;83.70;;;;;;5010485;28;92512;-64
2024/02/15 03:04:38;;;;;;;;;;;4.40;83.70;;;;;;5011690;28;92091;-64
2024/02/15 03:07:05;;;;;;;;;;;4.40;83.70;;;;;;5008348;28;91948;-64
2024/02/15 03:09:30;;;;;;;;;;;4.40;83.80;;;;;;5013599;28;92320;-64
2024/02/15 03:11:57;;;;;;;;;;;4.40;83.60;;;;;;5012493;28;91781;-64
2024/02/15 03:14:22;;;;;;;;;;;4.40;83.60;;;;;;5014983;28;92030;-64
2024/02/15 03:16:48;;;;;;;;;;;4.40;83.50;;;;;;5013494;28;92712;-64
2024/02/15 03:19:13;;;;;;;;;;;4.40;83.50;;;;;;5007499;28;93101;-64
2024/02/15 03:21:39;;;;;;;;;;;4.40;83.50;;;;;;5013442;28;92271;-64
2024/02/15 03:24:05;;;;;;;;;;;4.40;83.70;;;;;;5005031;28;92099;-64
2024/02/15 03:26:36;;;;;;;;;;;4.40;83.50;;;;;;5013787;28;92094;-64
2024/02/15 03:29:03;;;;;;;;;;;4.40;83.50;;;;;;5011895;28;92550;-64
2024/02/15 03:31:28;;;;;;;;;;;4.40;83.50;;;;;;5011854;28;91990;-64
2024/02/15 03:33:54;;;;;;;;;;;4.40;83.60;;;;;;5012214;28;92056;-64
2024/02/15 03:36:20;;;;;;;;;;;4.40;83.60;;;;;;5008283;28;91733;-64
2024/02/15 03:38:46;;;;;;;;;;;4.30;83.70;;;;;;5014444;28;92028;-64
2024/02/15 03:41:12;;;;;;;;;;;4.30;84.00;;;;;;5015584;28;91919;-64
2024/02/15 03:43:38;;;;;;;;;;;4.20;83.90;;;;;;5010750;28;93454;-64
2024/02/15 03:46:04;;;;;;;;;;;4.20;83.90;;;;;;5013297;28;92737;-65
2024/02/15 03:48:32;;;;;;;;;;;4.20;83.90;;;;;;5017592;28;92472;-64
2024/02/15 03:50:58;;;;;;;;;;;4.20;84.00;;;;;;5017945;28;92086;-64
2024/02/15 03:53:24;;;;;;;;;;;4.20;84.00;;;;;;5015676;28;92103;-64
2024/02/15 03:55:53;;;;;;;;;;;4.20;84.10;;;;;;5009719;28;92409;-65
2024/02/15 03:58:19;;;;;;;;;;;4.20;84.00;;;;;;5016593;28;91867;-64
2024/02/15 04:00:45;;;;;;;;;;;4.20;84.00;;;;;;5011255;28;93010;-64
2024/02/15 04:03:10;;;;;;;;;;;4.20;84.10;;;;;;5013516;28;92524;-64
2024/02/15 04:05:36;;;;;;;;;;;4.20;84.00;;;;;;5016800;28;92070;-64
2024/02/15 04:08:02;;;;;;;;;;;4.20;84.10;;;;;;5015200;28;93617;-64
2024/02/15 04:10:27;;;;;;;;;;;4.10;84.00;;;;;;5012044;28;93215;-64
2024/02/15 04:12:53;;;;;;;;;;;4.20;84.10;;;;;;5015006;28;92181;-64
2024/02/15 04:15:19;;;;;;;;;;;4.10;84.20;;;;;;5015841;28;92539;-64
2024/02/15 04:17:45;;;;;;;;;;;4.20;84.20;;;;;;5019099;28;92035;-64
2024/02/15 04:20:11;;;;;;;;;;;4.10;84.10;;;;;;5016302;28;92114;-64
2024/02/15 04:22:37;;;;;;;;;;;4.10;84.00;;;;;;5014260;28;92572;-64
2024/02/15 04:25:06;;;;;;;;;;;4.10;84.10;;;;;;5017134;28;91407;-64
2024/02/15 04:27:32;;;;;;;;;;;4.10;84.60;;;;;;5015894;28;93494;-65
2024/02/15 04:29:58;;;;;;;;;;;4.10;84.00;;;;;;5011675;28;92108;-64
2024/02/15 04:32:23;;;;;;;;;;;4.10;83.90;;;;;;5013479;28;92969;-64
2024/02/15 04:34:49;;;;;;;;;;;4.10;83.90;;;;;;5009555;28;92543;-64
2024/02/15 04:37:16;;;;;;;;;;;4.10;84.00;;;;;;5013477;28;92065;-64
2024/02/15 04:39:42;;;;;;;;;;;4.10;84.00;;;;;;5017263;28;91904;-64
2024/02/15 04:42:11;;;;;;;;;;;4.10;83.90;;;;;;5015955;28;92248;-64
2024/02/15 04:44:39;;;;;;;;;;;4.10;83.80;;;;;;5010722;28;92088;-65
2024/02/15 04:47:05;;;;;;;;;;;4.10;83.80;;;;;;5013491;28;91904;-64
2024/02/15 04:49:31;;;;;;;;;;;4.10;83.90;;;;;;5016854;28;91129;-64
2024/02/15 04:51:57;;;;;;;;;;;4.10;83.80;;;;;;5009732;28;91989;-64
2024/02/15 04:54:23;;;;;;;;;;;4.00;83.80;;;;;;5015255;28;92418;-64
2024/02/15 04:56:52;;;;;;;;;;;4.10;83.90;;;;;;5012661;28;92995;-64
2024/02/15 04:59:19;;;;;;;;;;;4.00;83.80;;;;;;5016085;28;92804;-64
2024/02/15 05:01:45;;;;;;;;;;;4.00;83.90;;;;;;5013339;28;93179;-64
2024/02/15 05:04:11;;;;;;;;;;;4.00;83.90;;;;;;5012863;28;92087;-64
2024/02/15 05:06:37;;;;;;;;;;;4.00;83.90;;;;;;5012738;28;91928;-64
2024/02/15 05:09:07;;;;;;;;;;;4.00;83.90;;;;;;5018372;28;92238;-64
2024/02/15 05:11:46;;;;;;;;;;;4.00;83.90;;;;;;5010106;28;93074;-64
2024/02/15 05:14:11;;;;;;;;;;;4.00;83.80;;;;;;5008570;28;92317;-65
2024/02/15 05:16:42;;;;;;;;;;;4.00;83.80;;;;;;5010279;28;92144;-64
2024/02/15 05:19:08;;;;;;;;;;;4.00;83.80;;;;;;5009156;28;92886;-65
2024/02/15 05:21:33;;;;;;;;;;;4.00;83.60;;;;;;5011322;28;93478;-65
2024/02/15 05:23:59;;;;;;;;;;;4.00;83.60;;;;;;5012551;28;92058;-64
2024/02/15 05:26:25;;;;;;;;;;;4.00;83.50;;;;;;5012784;28;91757;-64
2024/02/15 05:28:50;;;;;;;;;;;4.00;83.70;;;;;;5015976;28;92427;-64
2024/02/15 05:31:20;;;;;;;;;;;4.00;83.70;;;;;;5018104;28;92084;-64
2024/02/15 05:33:49;;;;;;;;;;;4.00;83.60;;;;;;5015062;28;92563;-64
2024/02/15 05:36:15;;;;;;;;;;;4.00;83.60;;;;;;5007784;28;93011;-64
2024/02/15 05:38:41;;;;;;;;;;;4.00;83.50;;;;;;5011503;28;91920;-65
2024/02/15 05:41:10;;;;;;;;;;;4.00;83.40;;;;;;5014527;28;92464;-64
2024/02/15 05:43:36;;;;;;;;;;;4.00;83.50;;;;;;5016192;28;92100;-64
2024/02/15 05:46:06;;;;;;;;;;;3.90;83.50;;;;;;4801315;27;5002005;-64
2024/02/15 05:48:34;;;;;;;;;;;4.00;83.60;;;;;;5023559;28;92545;-64
2024/02/15 05:51:01;;;;;;;;;;;3.90;83.50;;;;;;5024047;28;91903;-64
2024/02/15 05:53:26;;;;;;;;;;;4.00;83.50;;;;;;5026684;28;92061;-64
2024/02/15 05:55:52;;;;;;;;;;;4.00;83.50;;;;;;5024333;28;92042;-64
2024/02/15 05:58:18;;;;;;;;;;;4.00;83.60;;;;;;5023854;28;92549;-64
2024/02/15 06:00:50;;;;;;;;;;;3.90;83.60;;;;;;5021652;28;92989;-64
2024/02/15 06:03:18;;;;;;;;;;;3.90;83.50;;;;;;5023915;28;91321;-64
2024/02/15 06:05:44;;;;;;;;;;;3.90;83.50;;;;;;5020790;28;91908;-64
2024/02/15 06:08:12;;;;;;;;;;;3.90;83.60;;;;;;5022611;28;92513;-64
2024/02/15 06:10:38;;;;;;;;;;;3.90;83.70;;;;;;5018670;28;92964;-64
2024/02/15 06:13:04;;;;;;;;;;;3.90;83.70;;;;;;5018808;28;92630;-64
2024/02/15 06:15:29;;;;;;;;;;;3.90;83.80;;;;;;5042604;27;92045;-64
2024/02/15 06:17:55;;;;;;;;;;;3.90;83.70;;;;;;5023964;28;91922;-64
2024/02/15 06:20:21;;;;;;;;;;;3.90;83.70;;;;;;5015396;28;92440;-64
2024/02/15 06:22:47;;;;;;;;;;;3.90;83.60;;;;;;5019802;28;92005;-65
2024/02/15 06:25:13;;;;;;;;;;;3.90;83.70;;;;;;5023656;28;91857;-64
2024/02/15 06:27:42;;;;;;;;;;;3.90;83.80;;;;;;5023707;28;92243;-64
2024/02/15 06:41:05;;;;;;;;;;;3.90;83.70;;;;;;5022149;28;92223;-64
2024/02/15 06:43:30;;;;;;;;;;;3.90;83.70;;;;;;5023227;28;92043;-64
2024/02/15 06:45:56;;;;;;;;;;;3.80;83.70;;;;;;5021432;28;92088;-64
2024/02/15 06:48:21;;;;;;;;;;;3.90;83.80;;;;;;5015037;28;92462;-64
2024/02/15 06:50:50;;;;;;;;;;;3.80;83.80;;;;;;5020672;28;92118;-64
2024/02/15 06:53:15;;;;;;;;;;;3.80;83.70;;;;;;5023646;28;91808;-64
2024/02/15 06:55:42;;;;;;;;;;;3.80;83.70;;;;;;5022685;28;92475;-64
2024/02/15 06:58:07;;;;;;;;;;;3.80;83.70;;;;;;5022503;28;91974;-64
2024/02/15 07:00:33;;;;;;;;;;;3.80;83.80;;;;;;5022045;28;93545;-64
2024/02/15 07:02:59;;;;;;;;;;;3.80;83.70;;;;;;5023330;28;92279;-64
2024/02/15 07:05:27;;;;;;;;;;;3.90;83.70;;;;;;5023171;28;92029;-64
2024/02/15 07:07:56;;;;;;;;;;;3.80;83.70;;;;;;5022425;28;92579;-64
2024/02/15 07:10:22;;;;;;;;;;;3.80;83.70;;;;;;5019380;28;92133;-64
2024/02/15 07:12:49;;;;;;;;;;;3.90;83.80;;;;;;5024338;28;92008;-64
2024/02/15 07:15:16;;;;;;;;;;;3.80;83.80;;;;;;5022109;28;92512;-64
2024/02/15 07:17:42;;;;;;;;;;;3.80;83.70;;;;;;5023032;28;91178;-64
2024/02/15 07:20:10;;;;;;;;;;;3.80;83.70;;;;;;5029189;28;91726;-64
2024/02/15 07:22:37;;;;;;;;;;;3.80;83.80;;;;;;5026425;28;92006;-64
2024/02/15 07:25:04;;;;;;;;;;;3.80;83.80;;;;;;5025711;28;93170;-64
2024/02/15 07:27:29;;;;;;;;;;;3.80;83.70;;;;;;5025913;28;92521;-64
2024/02/15 07:29:55;;;;;;;;;;;3.80;83.70;;;;;;5026392;28;92113;-64
2024/02/15 07:32:21;;;;;;;;;;;3.80;83.70;;;;;;5026040;28;93204;-64
2024/02/15 07:34:47;;;;;;;;;;;3.80;83.70;;;;;;5025323;28;93534;-64
2024/02/15 07:37:15;;;;;;;;;;;3.90;83.80;;;;;;5026296;28;91951;-64
2024/02/15 07:39:41;;;;;;;;;;;3.90;83.60;;;;;;5025753;28;92037;-64
2024/02/15 07:42:08;;;;;;;;;;;3.90;83.50;;;;;;5028231;28;91868;-64
2024/02/15 07:44:36;;;;;;;;;;;3.90;83.60;;;;;;5025335;28;92743;-64
2024/02/15 07:47:02;;;;;;;;;;;3.90;83.60;;;;;;5025505;28;92295;-65
2024/02/15 07:49:29;;;;;;;;;;;3.90;83.50;;;;;;5023516;28;92941;-64
2024/02/15 07:51:55;;;;;;;;;;;3.90;83.60;;;;;;5022715;28;91962;-64
2024/02/15 07:54:20;;;;;;;;;;;4.00;83.40;;;;;;5025500;28;92330;-64
2024/02/15 07:56:48;;;;;;;;;;;4.00;83.40;;;;;;5025834;28;92024;-64
2024/02/15 07:59:13;;;;;;;;;;;4.00;84.00;;;;;;5026000;28;91836;-64
2024/02/15 08:01:43;;;;;;;;;;;4.00;83.30;;;;;;5020692;28;92668;-64
2024/02/15 08:04:09;;;;;;;;;;;4.00;83.40;;;;;;5026333;28;92226;-63
2024/02/15 08:06:36;;;;;;;;;;;4.00;83.30;;;;;;5021776;28;91270;-64
2024/02/15 08:09:04;;;;;;;;;;;4.10;83.40;;;;;;5022452;28;92014;-64
2024/02/15 08:11:30;;;;;;;;;;;4.00;83.40;;;;;;5020402;28;91984;-64
2024/02/15 08:13:59;;;;;;;;;;;4.00;83.40;;;;;;5023522;28;93442;-64
2024/02/15 08:16:27;;;;;;;;;;;4.00;83.40;;;;;;5025194;28;92000;-64
2024/02/15 08:18:54;;;;;;;;;;;4.10;83.50;;;;;;5022288;28;91977;-63
2024/02/15 08:21:50;;;;;;;;;;;4.00;83.40;;;;;;5020756;28;92146;-63
2024/02/15 08:24:16;;;;;;;;;;;4.00;83.50;;;;;;5019834;28;92144;-63
2024/02/15 08:26:42;;;;;;;;;;;4.10;83.30;;;;;;5020098;28;92459;-64
2024/02/15 08:29:07;;;;;;;;;;;4.10;83.30;;;;;;5021551;28;92074;-63
2024/02/15 08:31:36;;;;;;;;;;;4.00;83.30;;;;;;5025925;28;91649;-63
2024/02/15 08:34:04;;;;;;;;;;;4.10;83.50;;;;;;5024472;28;92845;-64
2024/02/15 08:36:30;;;;;;;;;;;4.10;83.40;;;;;;5025280;28;92031;-63
2024/02/15 08:38:56;;;;;;;;;;;4.10;83.40;;;;;;5023772;28;93297;-63
2024/02/15 08:41:26;;;;;;;;;;;4.10;84.00;;;;;;5023533;28;92451;-63
2024/02/15 08:43:52;;;;;;;;;;;4.10;83.40;;;;;;5024464;28;92077;-63
2024/02/15 08:46:17;;;;;;;;;;;4.10;83.40;;;;;;5028026;28;92152;-63
2024/02/15 08:48:44;;;;;;;;;;;4.10;83.50;;;;;;5019289;28;92161;-64
2024/02/15 08:51:10;;;;;;;;;;;4.10;83.50;;;;;;5020481;28;91912;-64
2024/02/15 08:53:38;;;;;;;;;;;4.10;83.50;;;;;;5024719;28;92458;-64
2024/02/15 08:56:04;;;;;;;;;;;4.10;83.20;;;;;;5025171;28;91370;-64
2024/02/15 08:58:30;;;;;;;;;;;4.10;83.50;;;;;;5024529;28;92002;-64
2024/02/15 09:00:56;;;;;;;;;;;4.10;83.50;;;;;;5024545;28;91985;-64
2024/02/15 09:03:22;;;;;;;;;;;4.10;83.40;;;;;;5019722;28;93026;-64
2024/02/15 09:05:48;;;;;;;;;;;4.10;83.40;;;;;;5021691;28;92739;-63
2024/02/15 09:08:15;;;;;;;;;;;4.10;83.40;;;;;;5027503;28;92474;-64
2024/02/15 09:10:42;;;;;;;;;;;4.10;83.30;;;;;;5023739;28;91995;-64
2024/02/15 09:13:08;;;;;;;;;;;4.10;83.20;;;;;;5024295;28;92466;-64
2024/02/15 09:15:33;;;;;;;;;;;4.10;83.50;;;;;;5024788;28;91939;-64
2024/02/15 09:17:59;;;;;;;;;;;4.10;83.40;;;;;;5024232;28;92054;-64
2024/02/15 09:20:28;;;;;;;;;;;4.10;83.30;;;;;;5024837;28;91224;-64
2024/02/15 09:22:54;;;;;;;;;;;4.10;83.40;;;;;;5023659;28;92055;-64
2024/02/15 09:25:20;;;;;;;;;;;4.10;83.50;;;;;;5023987;28;92648;-63
2024/02/15 09:27:46;;;;;;;;;;;4.10;83.30;;;;;;5023223;28;93486;-64
2024/02/15 09:30:12;;;;;;;;;;;4.10;83.20;;;;;;5027652;28;92022;-63
2024/02/15 09:32:41;;;;;;;;;;;4.10;83.30;;;;;;5023836;28;92311;-64
2024/02/15 09:35:11;;;;;;;;;;;4.10;83.30;;;;;;5024280;28;92043;-64
2024/02/15 09:37:49;;;;;;;;;;;4.10;83.40;;;;;;5019718;28;92478;-64
2024/02/15 09:40:16;;;;;;;;;;;4.10;83.80;;;;;;5019687;28;93475;-63
2024/02/15 09:42:44;;;;;;;;;;;4.10;83.30;;;;;;5017849;28;91961;-63
2024/02/15 09:45:10;;;;;;;;;;;4.10;83.50;;;;;;5023140;28;91727;-64
2024/02/15 09:47:36;;;;;;;;;;;4.20;83.30;;;;;;5020997;28;92569;-63
2024/02/15 09:50:06;;;;;;;;;;;4.20;83.20;;;;;;5022678;28;92028;-64
2024/02/15 09:52:32;;;;;;;;;;;4.20;83.30;;;;;;5024386;28;93130;-63
2024/02/15 09:55:01;;;;;;;;;;;4.20;83.20;;;;;;5022663;28;92141;-63
2024/02/15 09:57:27;;;;;;;;;;;4.20;83.30;;;;;;5021717;28;92185;-64
2024/02/15 09:59:53;;;;;;;;;;;4.20;83.20;;;;;;5022976;28;92014;-64
2024/02/15 10:02:19;;;;;;;;;;;4.20;83.30;;;;;;5024033;28;92062;-64
2024/02/15 10:04:45;;;;;;;;;;;4.30;83.30;;;;;;5020449;28;92816;-63
2024/02/15 10:07:13;;;;;;;;;;;4.30;83.20;;;;;;5023491;28;92416;-63
2024/02/15 10:09:42;;;;;;;;;;;4.30;83.20;;;;;;5020642;28;91359;-64
2024/02/15 10:12:09;;;;;;;;;;;4.30;83.20;;;;;;5016955;28;92043;-63
2024/02/15 10:14:35;;;;;;;;;;;4.30;83.20;;;;;;5020494;28;92336;-64
2024/02/15 10:17:10;;;;;;;;;;;4.30;83.10;;;;;;5019788;28;93019;-63
2024/02/15 10:19:37;;;;;;;;;;;4.20;83.30;;;;;;5018740;28;92522;-63
2024/02/15 10:22:06;;;;;;;;;;;4.30;83.40;;;;;;5023158;28;92003;-63
2024/02/15 10:24:32;;;;;;;;;;;4.30;83.30;;;;;;5023859;28;92061;-64
2024/02/15 10:27:04;;;;;;;;;;;4.30;83.20;;;;;;5023126;28;92481;-64
2024/02/15 10:29:35;;;;;;;;;;;4.30;83.30;;;;;;5023519;28;91999;-64
2024/02/15 10:32:02;;;;;;;;;;;4.30;83.10;;;;;;5019552;28;92002;-64
2024/02/15 10:34:27;;;;;;;;;;;4.30;83.10;;;;;;5026332;28;91838;-64
2024/02/15 10:36:56;;;;;;;;;;;4.40;83.10;;;;;;5023376;28;92223;-62
2024/02/15 10:39:23;;;;;;;;;;;4.40;83.20;;;;;;5022847;28;92367;-63
2024/02/15 10:41:52;;;;;;;;;;;4.50;83.20;;;;;;5022117;28;93028;-63
2024/02/15 10:44:19;;;;;;;;;;;4.40;83.00;;;;;;5023407;28;92751;-63
2024/02/15 10:46:46;;;;;;;;;;;4.40;83.80;;;;;;5022534;28;92612;-63
2024/02/15 10:49:13;;;;;;;;;;;4.40;83.20;;;;;;5020599;28;92045;-64
2024/02/15 10:51:42;;;;;;;;;;;4.40;83.10;;;;;;5020049;28;92919;-63
2024/02/15 10:54:13;;;;;;;;;;;4.50;83.40;;;;;;5021777;28;92471;-63
2024/02/15 10:56:43;;;;;;;;;;;4.40;83.20;;;;;;5026024;28;91947;-63
2024/02/15 10:59:20;;;;;;;;;;;4.40;83.50;;;;;;5022545;28;92973;-63
2024/02/15 11:01:47;;;;;;;;;;;4.50;83.30;;;;;;5022012;28;92174;-63
2024/02/15 11:04:15;;;;;;;;;;;4.50;83.40;;;;;;5022551;28;92020;-63
2024/02/15 11:06:42;;;;;;;;;;;4.50;83.30;;;;;;5021910;28;93255;-63
2024/02/15 11:09:10;;;;;;;;;;;4.40;83.50;;;;;;5022921;28;92086;-63
2024/02/15 11:11:37;;;;;;;;;;;4.50;83.70;;;;;;5022167;28;92107;-64
2024/02/15 11:14:21;;;;;;;;;;;4.50;83.50;;;;;;5021574;28;92580;-63
2024/02/15 11:16:47;;;;;;;;;;;4.50;83.80;;;;;;5016206;28;92045;-63
2024/02/15 11:19:31;;;;;;;;;;;4.50;83.80;;;;;;5025818;28;92652;-63
2024/02/15 11:21:58;;;;;;;;;;;4.50;83.90;;;;;;5022872;28;92068;-64
2024/02/15 11:24:29;;;;;;;;;;;4.50;83.70;;;;;;5023102;28;91770;-64
2024/02/15 11:26:58;;;;;;;;;;;4.50;83.70;;;;;;5018379;28;92613;-63
2024/02/15 11:29:42;;;;;;;;;;;4.50;84.30;;;;;;5019239;28;92096;-63
2024/02/15 11:32:08;;;;;;;;;;;4.50;83.80;;;;;;5020802;28;93004;-63
2024/02/15 11:34:45;;;;;;;;;;;4.50;83.90;;;;;;5021775;28;92553;-63
2024/02/15 11:37:31;;;;;;;;;;;4.50;84.00;;;;;;5016584;28;92457;-63
2024/02/15 11:39:59;;;;;;;;;;;4.50;83.90;;;;;;5018019;28;92055;-63
2024/02/15 11:42:28;;;;;;;;;;;4.60;83.80;;;;;;5024815;28;92476;-63
2024/02/15 11:45:07;;;;;;;;;;;4.60;84.00;;;;;;5018621;28;92497;-63
2024/02/15 11:47:36;;;;;;;;;;;4.60;83.60;;;;;;5019782;28;92632;-63
2024/02/15 11:50:02;;;;;;;;;;;4.60;84.10;;;;;;5022892;28;91284;-63
2024/02/15 11:52:28;;;;;;;;;;;4.60;84.00;;;;;;5022648;28;92416;-63
2024/02/15 11:55:03;;;;;;;;;;;4.60;84.00;;;;;;5022144;28;92694;-63
2024/02/15 11:57:37;;;;;;;;;;;4.60;83.70;;;;;;5021715;28;93040;-63
2024/02/15 12:18:42;;;;;;;;;;;4.60;83.80;;;;;;5017630;28;92626;-63
2024/02/15 12:19:49;;;;;;;;;;;4.80;83.40;;;;;;5025897;28;91966;-64
2024/02/15 12:22:15;;;;;;;;;;;4.80;83.80;;;;;;5025590;28;91901;-63
2024/02/15 12:24:40;;;;;;;;;;;4.80;83.40;;;;;;5024479;28;92840;-63
2024/02/15 12:27:06;;;;;;;;;;;4.80;83.30;;;;;;5025625;28;92134;-63
2024/02/15 12:29:32;;;;;;;;;;;4.80;83.00;;;;;;5027921;28;92443;-63
2024/02/15 12:32:01;;;;;;;;;;;4.80;83.00;;;;;;5025381;28;91937;-63
2024/02/15 12:34:26;;;;;;;;;;;4.90;83.20;;;;;;5024255;28;91851;-63
2024/02/15 12:37:04;;;;;;;;;;;4.80;83.50;;;;;;5024198;28;91941;-63
2024/02/15 12:39:31;;;;;;;;;;;4.90;83.50;;;;;;5022953;28;91979;-62
2024/02/15 12:41:57;;;;;;;;;;;4.90;83.70;;;;;;5024832;28;92163;-63
2024/02/15 12:44:24;;;;;;;;;;;4.90;83.40;;;;;;5024661;28;92605;-61
2024/02/15 12:46:56;;;;;;;;;;;4.90;82.90;;;;;;5025254;28;92074;-64
2024/02/15 12:49:21;;;;;;;;;;;4.90;82.60;;;;;;5024181;28;92938;-63
2024/02/15 12:51:52;;;;;;;;;;;4.90;82.40;;;;;;5022919;28;92167;-63
2024/02/15 12:54:23;;;;;;;;;;;4.90;83.10;;;;;;5021091;28;91983;-64
2024/02/15 12:56:51;;;;;;;;;;;4.90;82.90;;;;;;5020450;28;92491;-63
2024/02/15 12:59:19;;;;;;;;;;;4.90;82.80;;;;;;5023657;28;92105;-64
2024/02/15 13:01:46;;;;;;;;;;;5.00;83.30;;;;;;5024904;28;91967;-63
2024/02/15 13:04:24;;;;;;;;;;;5.00;83.50;;;;;;5021402;28;92489;-63
2024/02/15 13:06:50;;;;;;;;;;;5.00;83.20;;;;;;5024539;28;91365;-63
2024/02/15 13:09:15;;;;;;;;;;;5.00;83.20;;;;;;5023841;28;92036;-64
2024/02/15 13:11:45;;;;;;;;;;;5.00;82.70;;;;;;5022993;28;92536;-64
2024/02/15 13:14:11;;;;;;;;;;;5.00;82.90;;;;;;5020801;28;92886;-64
2024/02/15 13:16:36;;;;;;;;;;;5.00;82.90;;;;;;5024341;28;92547;-64
2024/02/15 13:19:03;;;;;;;;;;;5.00;83.00;;;;;;5024775;28;92012;-63
2024/02/15 13:21:30;;;;;;;;;;;5.10;83.50;;;;;;5024436;28;92726;-63
2024/02/15 13:23:56;;;;;;;;;;;5.10;83.00;;;;;;5023975;28;92930;-63
2024/02/15 13:26:25;;;;;;;;;;;5.10;82.90;;;;;;5022880;28;92077;-63
2024/02/15 13:28:51;;;;;;;;;;;5.10;82.80;;;;;;5023775;28;91986;-63
2024/02/15 13:31:17;;;;;;;;;;;5.10;82.90;;;;;;5024309;28;91487;-63
2024/02/15 13:33:43;;;;;;;;;;;5.20;83.20;;;;;;5027715;28;92061;-63
2024/02/15 13:36:10;;;;;;;;;;;5.10;82.80;;;;;;5023109;28;92097;-63
2024/02/15 13:38:36;;;;;;;;;;;5.20;83.10;;;;;;5017610;28;93061;-63
2024/02/15 13:41:03;;;;;;;;;;;5.20;82.90;;;;;;5023460;28;92743;-64
2024/02/15 13:43:28;;;;;;;;;;;5.20;82.80;;;;;;5019125;28;92484;-63
2024/02/15 13:45:54;;;;;;;;;;;5.20;82.70;;;;;;5021290;28;92034;-63
2024/02/15 13:48:20;;;;;;;;;;;5.20;83.20;;;;;;5024415;28;92098;-63
2024/02/15 13:50:45;;;;;;;;;;;5.20;83.10;;;;;;5019693;28;92427;-62
2024/02/15 13:53:13;;;;;;;;;;;5.20;82.90;;;;;;5022926;28;92050;-63
2024/02/15 13:55:39;;;;;;;;;;;5.20;83.10;;;;;;5027078;28;91755;-63
2024/02/15 13:58:07;;;;;;;;;;;5.20;83.20;;;;;;5016209;28;92185;-64
2024/02/15 14:00:33;;;;;;;;;;;5.30;82.60;;;;;;5024033;28;92014;-63
2024/02/15 14:03:00;;;;;;;;;;;5.30;83.10;;;;;;5017681;28;93424;-63
2024/02/15 14:05:29;;;;;;;;;;;5.30;82.80;;;;;;5020261;28;92523;-64
2024/02/15 14:07:56;;;;;;;;;;;5.30;82.70;;;;;;5024157;28;91891;-63
2024/02/15 14:10:22;;;;;;;;;;;5.30;83.60;;;;;;5023409;28;93055;-64
2024/02/15 14:12:48;;;;;;;;;;;5.30;82.80;;;;;;5021497;28;92054;-63
2024/02/15 14:15:17;;;;;;;;;;;5.30;83.30;;;;;;5017523;28;91769;-63
2024/02/15 14:17:44;;;;;;;;;;;5.30;83.50;;;;;;5024877;28;92621;-63
2024/02/15 14:20:13;;;;;;;;;;;5.30;83.50;;;;;;5016641;28;91719;-64
2024/02/15 14:22:57;;;;;;;;;;;5.30;83.30;;;;;;5021826;28;92501;-63
2024/02/15 14:25:23;;;;;;;;;;;5.40;83.10;;;;;;5020024;28;91990;-63
2024/02/15 14:27:49;;;;;;;;;;;5.40;83.40;;;;;;5023168;28;92863;-64
2024/02/15 14:33:08;;;;;;;;;;;5.40;83.60;;;;;;5023348;28;92065;-63
2024/02/15 14:35:38;;;;;;;;;;;5.40;83.60;;;;;;5019562;28;92021;-63
2024/02/15 14:38:10;;;;;;;;;;;5.40;83.50;;;;;;5021883;28;92665;-63
2024/02/15 14:40:40;;;;;;;;;;;5.40;83.60;;;;;;5024821;28;92076;-63
2024/02/15 14:43:06;;;;;;;;;;;5.50;83.60;;;;;;5022642;28;93578;-63
2024/02/15 14:45:32;;;;;;;;;;;5.50;83.40;;;;;;5019995;28;91260;-63
2024/02/15 14:47:58;;;;;;;;;;;5.50;83.30;;;;;;5022907;28;92025;-63
2024/02/15 14:50:24;;;;;;;;;;;5.50;83.30;;;;;;5022643;28;92472;-63
2024/02/15 14:52:49;;;;;;;;;;;5.50;83.10;;;;;;5022812;28;93001;-63
2024/02/15 14:55:16;;;;;;;;;;;5.60;83.20;;;;;;5023070;28;93345;-63
2024/02/15 14:57:42;;;;;;;;;;;5.60;83.40;;;;;;5021994;28;92502;-63
2024/02/15 15:00:13;;;;;;;;;;;5.50;83.40;;;;;;5024487;28;92076;-63
2024/02/15 15:02:41;;;;;;;;;;;5.60;84.10;;;;;;5018221;28;92477;-63